Amasa, Michigan
Current Conditions -  °F | °C
As of 9:54 PM on Saturday 22 Nov 2014 (Local Time) from KIMT Reporting Station
Haze Haze  
Wind Chill: 30°   Ceiling: 600
Heat Index: 35°   Visibility: 6mi
Dew Point: 33°   Wind: 6mph
Humidity: 92%   Direction: 160°SSE
Pressure: 29.71"   Gusts: NA
Location:  46.23°N, 88.45°W
Report Text: KIMT 230354Z AUTO 16005KT 6SM BR OVC006 02/01 A2971 RMK AO2 SLP072 T00170006
Loading
Personal Weather Stations






























Interactive Weather Map New forecast layout! Learn more

10-Day Weather Forecast

Advertisements
Track Severe Weather on mobile